createdAt,value
2023-01-08T00:12:44.678Z,0.66
2023-01-08T00:32:44.691Z,0.59
2023-01-08T00:52:44.704Z,0.73
2023-01-08T01:12:44.715Z,0.71
2023-01-08T01:32:44.779Z,0.96
2023-01-08T01:52:44.755Z,0.64
2023-01-08T02:12:44.661Z,0.31
2023-01-08T02:32:44.669Z,0.17
2023-01-08T02:52:44.681Z,0.14
2023-01-08T03:12:44.695Z,0.27
2023-01-08T03:32:44.707Z,0.09
2023-01-08T03:52:44.724Z,0.00
2023-01-08T04:12:44.733Z,-0.27
2023-01-08T04:32:44.742Z,0.11
2023-01-08T04:52:44.759Z,0.02
2023-01-08T05:12:44.780Z,0.08
2023-01-08T05:32:44.783Z,0.08
2023-01-08T05:52:44.791Z,0.19
2023-01-08T06:12:44.807Z,0.42
2023-01-08T06:32:44.813Z,0.64
2023-01-08T06:52:44.820Z,0.57
2023-01-08T07:12:44.839Z,0.51
2023-01-08T07:32:44.849Z,0.83
2023-01-08T07:52:44.861Z,0.95
2023-01-08T08:12:44.882Z,1.32
2023-01-08T08:32:44.949Z,1.72
2023-01-08T08:52:44.923Z,2.12
2023-01-08T09:12:44.910Z,2.42
2023-01-08T09:32:44.818Z,2.87
2023-01-08T09:52:44.830Z,3.28
2023-01-08T10:12:44.845Z,3.94
2023-01-08T10:32:44.864Z,4.55
2023-01-08T10:52:44.872Z,5.38
2023-01-08T11:12:44.886Z,5.90
2023-01-08T11:32:44.914Z,6.07
2023-01-08T11:52:44.818Z,6.53
2023-01-08T12:12:44.834Z,6.78
2023-01-08T12:32:44.854Z,6.85
2023-01-08T12:52:44.873Z,6.77
2023-01-08T13:12:44.775Z,6.68
2023-01-08T13:32:44.794Z,6.60
2023-01-08T13:52:44.791Z,6.45
2023-01-08T14:12:44.807Z,6.29
2023-01-08T14:32:44.826Z,6.17
2023-01-08T14:52:44.740Z,6.13
2023-01-08T15:12:44.753Z,6.13
2023-01-08T15:32:44.769Z,5.91
2023-01-08T15:52:44.773Z,5.69
2023-01-08T16:12:44.796Z,5.47
2023-01-08T16:32:44.727Z,5.34
2023-01-08T16:52:44.727Z,4.92
2023-01-08T17:12:44.747Z,4.38
2023-01-08T17:32:44.766Z,3.78
2023-01-08T17:52:44.953Z,3.35
2023-01-08T18:12:44.781Z,3.41
2023-01-08T18:32:44.800Z,3.46
2023-01-08T18:52:44.728Z,3.57
2023-01-08T19:12:44.781Z,3.57
2023-01-08T19:32:44.741Z,3.64
2023-01-08T19:52:44.751Z,3.65
2023-01-08T20:12:44.801Z,3.57
2023-01-08T20:32:44.778Z,3.54
2023-01-08T20:52:44.791Z,3.53
2023-01-08T21:12:44.714Z,3.62
2023-01-08T21:32:44.719Z,3.75
2023-01-08T21:52:44.733Z,3.74
2023-01-08T22:12:44.885Z,3.76
2023-01-08T22:32:44.758Z,3.65
2023-01-08T22:52:44.774Z,3.54
2023-01-08T23:12:44.781Z,3.46
2023-01-08T23:32:44.805Z,3.45
2023-01-08T23:52:44.710Z,3.60
